createdAt,value
2023-02-17T00:00:31.480Z,3.03
2023-02-17T00:02:59.045Z,2.35
2023-02-17T00:05:26.842Z,3.10
2023-02-17T00:07:54.168Z,2.80
2023-02-17T00:10:20.784Z,2.73
2023-02-17T00:12:47.265Z,2.53
2023-02-17T00:15:13.808Z,2.05
2023-02-17T00:17:40.424Z,2.10
2023-02-17T00:20:07.557Z,3.53
2023-02-17T00:22:34.082Z,2.33
2023-02-17T00:25:00.792Z,2.80
2023-02-17T00:27:27.476Z,2.58
2023-02-17T00:29:54.113Z,2.78
2023-02-17T00:32:20.725Z,2.25
2023-02-17T00:34:49.617Z,2.65
2023-02-17T00:37:16.247Z,2.55
2023-02-17T00:39:42.908Z,2.15
2023-02-17T00:42:10.466Z,2.42
2023-02-17T00:44:37.061Z,2.63
2023-02-17T00:47:03.567Z,2.63
2023-02-17T00:49:30.228Z,2.75
2023-02-17T00:52:00.301Z,2.40
2023-02-17T00:54:27.061Z,2.78
2023-02-17T00:56:53.736Z,3.33
2023-02-17T00:59:20.331Z,2.60
2023-02-17T01:01:47.183Z,3.35
2023-02-17T01:04:13.795Z,2.72
2023-02-17T01:06:40.543Z,2.47
2023-02-17T01:09:09.409Z,3.33
2023-02-17T01:11:36.486Z,2.22
2023-02-17T01:14:05.506Z,3.55
2023-02-17T01:16:35.975Z,3.10
2023-02-17T01:19:07.648Z,2.42
2023-02-17T01:21:35.343Z,2.20
2023-02-17T01:24:04.681Z,2.53
2023-02-17T01:26:33.140Z,2.42
2023-02-17T01:29:02.157Z,2.88
2023-02-17T01:31:29.496Z,2.20
2023-02-17T01:33:58.161Z,2.30
2023-02-17T01:36:25.039Z,2.40
2023-02-17T01:38:51.723Z,3.25
2023-02-17T01:41:20.757Z,2.03
2023-02-17T01:44:16.499Z,2.08
2023-02-17T01:46:48.222Z,2.72
2023-02-17T01:49:23.509Z,2.45
2023-02-17T01:51:56.068Z,2.38
2023-02-17T01:54:30.225Z,2.28
2023-02-17T01:56:59.688Z,1.80
2023-02-17T01:59:26.641Z,2.40
2023-02-17T02:01:58.710Z,2.20
2023-02-17T02:04:29.544Z,2.03
2023-02-17T02:06:56.644Z,2.10
2023-02-17T02:09:36.449Z,1.90
2023-02-17T02:12:03.446Z,1.90
2023-02-17T02:14:32.704Z,1.95
2023-02-17T02:17:21.351Z,1.85
2023-02-17T02:20:08.766Z,1.77
2023-02-17T02:22:52.585Z,2.10
2023-02-17T02:25:56.700Z,1.45
2023-02-17T02:28:45.557Z,1.83
2023-02-17T02:31:29.913Z,1.90
2023-02-17T02:34:05.969Z,1.80
2023-02-17T02:36:56.213Z,1.33
2023-02-17T02:39:29.264Z,1.85
2023-02-17T02:42:03.454Z,1.58
2023-02-17T02:44:30.541Z,1.92
2023-02-17T02:47:02.605Z,1.95
2023-02-17T02:49:31.811Z,1.77
2023-02-17T02:52:21.313Z,1.75
2023-02-17T02:55:08.055Z,1.80
2023-02-17T02:57:51.215Z,1.88
2023-02-17T03:00:38.545Z,2.08
2023-02-17T03:03:15.426Z,1.70
2023-02-17T03:05:55.031Z,2.20
2023-02-17T03:08:49.045Z,2.67
2023-02-17T03:11:16.910Z,1.80
2023-02-17T03:13:43.404Z,2.30
2023-02-17T03:16:13.933Z,2.10
2023-02-17T03:18:40.581Z,2.10
2023-02-17T03:21:15.073Z,2.05
2023-02-17T03:23:42.545Z,1.95
2023-02-17T03:26:09.194Z,2.30
2023-02-17T03:28:35.810Z,1.75
2023-02-17T03:31:02.621Z,2.35
2023-02-17T03:33:29.414Z,1.70
2023-02-17T03:35:56.135Z,2.05
2023-02-17T03:38:22.919Z,1.80
2023-02-17T03:40:49.398Z,2.05
2023-02-17T03:43:17.914Z,1.88
2023-02-17T03:45:44.752Z,2.08
2023-02-17T03:48:11.290Z,2.42
2023-02-17T03:50:37.811Z,2.05
2023-02-17T03:53:04.290Z,1.70
2023-02-17T03:55:31.111Z,2.08
2023-02-17T03:57:57.650Z,3.03
2023-02-17T04:00:24.220Z,1.85
2023-02-17T04:02:50.699Z,2.70
2023-02-17T04:05:17.257Z,2.28
2023-02-17T04:07:43.810Z,1.83
2023-02-17T04:10:11.010Z,2.25
2023-02-17T04:12:37.538Z,2.28
2023-02-17T04:15:04.454Z,1.60
2023-02-17T04:17:31.069Z,2.00
2023-02-17T04:19:57.711Z,1.40
2023-02-17T04:22:24.242Z,1.85
2023-02-17T04:24:51.018Z,1.60
2023-02-17T04:27:17.560Z,1.60
2023-02-17T04:29:44.066Z,1.83
2023-02-17T04:32:10.652Z,1.55
2023-02-17T04:34:37.181Z,1.70
2023-02-17T04:37:03.828Z,1.50
2023-02-17T04:39:30.407Z,1.60
2023-02-17T04:41:57.337Z,1.50
2023-02-17T04:44:23.917Z,1.38
2023-02-17T04:46:50.433Z,1.85
2023-02-17T04:49:16.948Z,1.60
2023-02-17T04:51:43.481Z,1.60
2023-02-17T04:54:10.051Z,1.98
2023-02-17T04:56:36.534Z,1.83
2023-02-17T04:59:03.160Z,1.63
2023-02-17T05:01:29.749Z,1.23
2023-02-17T05:03:56.342Z,1.50
2023-02-17T05:06:22.886Z,2.13
2023-02-17T05:08:49.362Z,1.75
2023-02-17T05:11:16.544Z,1.40
2023-02-17T05:13:43.201Z,1.50
2023-02-17T05:16:09.928Z,1.77
2023-02-17T05:18:36.484Z,1.55
2023-02-17T05:21:03.096Z,1.35
2023-02-17T05:23:29.646Z,1.30
2023-02-17T05:25:56.193Z,1.27
2023-02-17T05:28:22.864Z,1.15
2023-02-17T05:30:49.972Z,1.60
2023-02-17T05:33:16.718Z,1.50
2023-02-17T05:35:43.440Z,2.08
2023-02-17T05:38:10.145Z,1.58
2023-02-17T05:40:36.660Z,1.83
2023-02-17T05:43:03.209Z,1.98
2023-02-17T05:45:29.733Z,1.33
2023-02-17T05:47:56.396Z,1.40
2023-02-17T05:50:22.990Z,1.65
2023-02-17T05:52:49.473Z,1.67
2023-02-17T05:55:16.050Z,1.73
2023-02-17T05:57:42.662Z,1.58
2023-02-17T06:00:09.884Z,1.60
2023-02-17T06:02:39.552Z,1.63
2023-02-17T06:05:06.585Z,1.38
2023-02-17T06:07:33.157Z,1.60
2023-02-17T06:09:59.679Z,1.63
2023-02-17T06:12:26.587Z,1.58
2023-02-17T06:14:53.233Z,1.40
2023-02-17T06:17:19.770Z,1.30
2023-02-17T06:19:46.208Z,1.77
2023-02-17T06:22:12.930Z,1.35
2023-02-17T06:24:39.538Z,1.15
2023-02-17T06:27:06.367Z,1.70
2023-02-17T06:29:33.329Z,1.40
2023-02-17T06:32:00.038Z,1.60
2023-02-17T06:34:26.702Z,1.92
2023-02-17T06:36:53.978Z,2.47
2023-02-17T06:39:20.456Z,1.60
2023-02-17T06:41:47.239Z,1.30
2023-02-17T06:44:13.794Z,1.95
2023-02-17T06:46:40.461Z,1.60
2023-02-17T06:49:07.124Z,1.00
2023-02-17T06:51:33.637Z,1.30
2023-02-17T06:54:00.184Z,1.13
2023-02-17T06:56:26.995Z,1.20
2023-02-17T07:01:56.407Z,1.50
2023-02-17T07:04:22.937Z,1.10
2023-02-17T07:06:49.504Z,1.25
2023-02-17T07:09:15.995Z,1.50
2023-02-17T07:11:42.728Z,2.20
2023-02-17T07:14:09.185Z,1.67
2023-02-17T07:16:35.757Z,1.70
2023-02-17T07:19:02.447Z,1.48
2023-02-17T07:21:28.985Z,1.90
2023-02-17T07:23:55.553Z,2.13
2023-02-17T07:26:22.415Z,1.77
2023-02-17T07:28:48.926Z,1.30
2023-02-17T07:31:17.512Z,1.45
2023-02-17T07:33:44.865Z,1.98
2023-02-17T07:36:16.854Z,2.53
2023-02-17T07:38:43.648Z,1.65
2023-02-17T07:41:14.201Z,1.60
2023-02-17T07:43:41.304Z,2.03
2023-02-17T07:46:10.255Z,2.00
2023-02-17T07:51:08.925Z,1.42
2023-02-17T07:53:36.159Z,2.38
2023-02-17T07:56:08.500Z,2.10
2023-02-17T07:58:38.025Z,1.90
2023-02-17T08:01:19.828Z,1.85
2023-02-17T08:03:47.528Z,2.00
2023-02-17T08:06:17.504Z,2.50
2023-02-17T08:08:44.547Z,1.38
2023-02-17T08:11:13.655Z,2.22
2023-02-17T08:13:40.233Z,1.30
2023-02-17T08:16:07.046Z,1.52
2023-02-17T08:18:36.510Z,1.60
2023-02-17T08:21:03.812Z,2.85
2023-02-17T08:23:30.436Z,1.63
2023-02-17T08:25:58.298Z,2.83
2023-02-17T08:28:25.122Z,2.83
2023-02-17T08:30:51.875Z,1.42
2023-02-17T08:33:18.572Z,2.08
2023-02-17T08:35:45.594Z,1.83
2023-02-17T08:38:12.180Z,3.25
2023-02-17T08:40:38.859Z,1.67
2023-02-17T08:43:10.449Z,1.67
2023-02-17T08:45:37.360Z,2.45
2023-02-17T08:48:04.983Z,2.33
2023-02-17T08:50:33.029Z,2.63
2023-02-17T08:52:59.671Z,1.95
2023-02-17T08:55:26.187Z,2.05
2023-02-17T08:57:52.799Z,2.00
2023-02-17T09:00:19.402Z,2.42
2023-02-17T09:02:46.220Z,1.40
2023-02-17T09:05:14.067Z,2.17
2023-02-17T09:07:41.400Z,2.67
2023-02-17T09:10:09.088Z,1.57
2023-02-17T09:12:35.721Z,2.10
2023-02-17T09:15:02.268Z,1.60
2023-02-17T09:17:28.800Z,1.85
2023-02-17T09:19:55.334Z,1.73
2023-02-17T09:22:31.607Z,1.92
2023-02-17T09:24:58.895Z,2.53
2023-02-17T09:27:25.495Z,1.98
2023-02-17T09:29:52.036Z,1.60
2023-02-17T09:32:18.766Z,1.80
2023-02-17T09:34:45.522Z,1.42
2023-02-17T09:37:13.374Z,1.70
2023-02-17T09:39:39.966Z,3.35
2023-02-17T09:42:06.590Z,2.10
2023-02-17T09:44:43.553Z,1.33
2023-02-17T09:47:24.974Z,1.92
2023-02-17T09:49:57.355Z,1.90
2023-02-17T09:52:32.927Z,1.23
2023-02-17T09:55:07.726Z,2.08
2023-02-17T09:57:56.406Z,1.70
2023-02-17T10:00:32.488Z,1.67
2023-02-17T10:03:18.695Z,1.92
2023-02-17T10:05:55.833Z,1.60
2023-02-17T10:08:27.410Z,1.70
2023-02-17T10:11:05.633Z,1.75
2023-02-17T10:13:35.647Z,1.95
2023-02-17T10:16:10.336Z,2.65
2023-02-17T10:18:44.782Z,1.98
2023-02-17T10:21:16.386Z,1.92
2023-02-17T10:23:43.036Z,1.60
2023-02-17T10:26:34.004Z,1.25
2023-02-17T10:29:12.644Z,2.00
2023-02-17T10:32:00.670Z,1.38
2023-02-17T10:34:54.886Z,1.52
2023-02-17T10:38:02.068Z,1.88
2023-02-17T10:40:29.178Z,1.60
2023-02-17T10:43:01.288Z,1.77
2023-02-17T10:45:35.366Z,1.55
2023-02-17T10:48:09.443Z,1.58
2023-02-17T10:50:37.960Z,1.88
2023-02-17T10:53:14.364Z,1.75
2023-02-17T10:58:35.486Z,1.70
2023-02-17T11:01:03.473Z,1.30
2023-02-17T11:03:33.099Z,2.25
2023-02-17T11:06:09.408Z,2.55
2023-02-17T11:08:50.827Z,1.77
2023-02-17T11:11:24.309Z,2.03
2023-02-17T11:14:06.636Z,2.63
2023-02-17T11:16:46.277Z,1.80
2023-02-17T11:20:09.578Z,1.70
2023-02-17T11:22:34.338Z,1.58
2023-02-17T11:25:28.742Z,1.40
2023-02-17T11:28:07.139Z,2.08
2023-02-17T11:30:40.299Z,1.48
2023-02-17T11:33:26.944Z,1.58
2023-02-17T11:41:00.178Z,2.70
2023-02-17T11:43:29.991Z,1.13
2023-02-17T11:46:09.496Z,1.67
2023-02-17T11:49:14.439Z,1.75
2023-02-17T11:51:46.951Z,1.63
2023-02-17T11:58:06.760Z,1.77
2023-02-17T12:00:47.803Z,1.20
2023-02-17T12:03:48.500Z,1.20
2023-02-17T12:06:36.496Z,1.83
2023-02-17T12:09:09.107Z,1.20
2023-02-17T12:12:15.726Z,1.27
2023-02-17T12:15:03.538Z,1.90
2023-02-17T12:17:36.217Z,1.35
2023-02-17T12:20:15.213Z,1.90
2023-02-17T12:22:52.015Z,1.10
2023-02-17T12:25:38.678Z,1.13
2023-02-17T12:28:46.949Z,1.48
2023-02-17T12:31:29.780Z,1.50
2023-02-17T12:34:25.275Z,1.00
2023-02-17T12:37:10.954Z,1.20
2023-02-17T12:39:51.829Z,1.65
2023-02-17T12:42:30.445Z,1.45
2023-02-17T12:45:03.786Z,1.13
2023-02-17T12:48:10.290Z,1.60
2023-02-17T12:50:52.174Z,1.35
2023-02-17T12:53:48.929Z,1.40
2023-02-17T13:00:33.682Z,1.30
2023-02-17T13:03:37.253Z,1.17
2023-02-17T13:06:48.941Z,1.75
2023-02-17T13:10:08.033Z,0.85
2023-02-17T13:13:40.175Z,1.40
2023-02-17T13:30:12.849Z,1.00
2023-02-17T13:43:10.876Z,2.15
2023-02-17T13:47:10.076Z,1.00
2023-02-17T13:49:44.819Z,1.08
2023-02-17T13:56:24.655Z,1.75
2023-02-17T13:59:42.716Z,1.38
2023-02-17T14:05:59.547Z,1.60
2023-02-17T14:08:39.192Z,1.00
2023-02-17T14:11:18.414Z,1.17
2023-02-17T14:17:34.132Z,1.10
2023-02-17T14:20:33.149Z,1.23
2023-02-17T14:26:45.869Z,1.10
2023-02-17T14:29:32.975Z,1.02
2023-02-17T14:32:46.202Z,1.13
2023-02-17T14:39:00.008Z,1.38
2023-02-17T14:41:58.587Z,1.25
2023-02-17T14:44:44.157Z,1.17
2023-02-17T14:50:33.837Z,1.13
2023-02-17T14:53:41.755Z,1.10
2023-02-17T14:57:12.164Z,0.93
2023-02-17T15:03:34.490Z,1.30
2023-02-17T15:06:14.425Z,1.27
2023-02-17T15:09:03.324Z,0.98
2023-02-17T15:11:48.874Z,0.90
2023-02-17T15:14:46.265Z,1.00
2023-02-17T15:17:26.824Z,1.00
2023-02-17T15:30:12.580Z,0.88
2023-02-17T15:32:55.266Z,1.08
2023-02-17T15:35:42.653Z,0.63
2023-02-17T15:38:13.656Z,0.93
2023-02-17T15:40:41.456Z,0.90
2023-02-17T15:43:20.659Z,0.85
2023-02-17T15:45:47.673Z,0.80
2023-02-17T15:48:24.271Z,1.15
2023-02-17T15:50:51.376Z,1.02
2023-02-17T15:53:18.092Z,0.70
2023-02-17T15:55:45.172Z,1.02
2023-02-17T15:58:18.077Z,0.80
2023-02-17T16:00:45.708Z,1.02
2023-02-17T16:03:13.605Z,0.93
2023-02-17T16:05:40.285Z,1.08
2023-02-17T16:08:06.857Z,1.40
2023-02-17T16:10:34.621Z,0.95
2023-02-17T16:13:02.785Z,0.77
2023-02-17T16:15:31.948Z,1.05
2023-02-17T16:17:58.982Z,1.00
2023-02-17T16:20:34.391Z,1.10
2023-02-17T16:23:01.635Z,1.02
2023-02-17T16:25:29.516Z,1.30
2023-02-17T16:27:56.166Z,1.20
2023-02-17T16:30:29.249Z,1.20
2023-02-17T16:32:56.313Z,1.10
2023-02-17T16:35:31.235Z,1.17
2023-02-17T16:38:05.328Z,1.00
2023-02-17T16:40:34.821Z,0.82
2023-02-17T16:43:01.506Z,1.10
2023-02-17T16:45:31.850Z,0.98
2023-02-17T16:48:01.078Z,1.77
2023-02-17T16:50:33.725Z,0.90
2023-02-17T16:53:06.120Z,1.10
2023-02-17T16:55:34.423Z,1.50
2023-02-17T16:58:02.886Z,0.57
2023-02-17T17:00:33.091Z,1.00
2023-02-17T17:02:59.951Z,0.73
2023-02-17T17:05:28.711Z,0.98
2023-02-17T17:07:56.067Z,0.82
2023-02-17T17:10:31.320Z,0.82
2023-02-17T17:12:58.331Z,0.60
2023-02-17T17:15:25.008Z,0.80
2023-02-17T17:17:54.539Z,0.93
2023-02-17T17:20:23.349Z,0.82
2023-02-17T17:22:50.134Z,0.70
2023-02-17T17:25:17.445Z,0.65
2023-02-17T17:27:44.080Z,1.50
2023-02-17T17:30:18.324Z,1.08
2023-02-17T17:32:45.126Z,0.57
2023-02-17T17:35:11.980Z,0.98
2023-02-17T17:37:39.553Z,1.33
2023-02-17T17:40:07.516Z,1.10
2023-02-17T17:42:34.173Z,1.25
2023-02-17T17:45:00.647Z,0.80
2023-02-17T17:47:30.171Z,0.82
2023-02-17T17:49:57.168Z,0.68
2023-02-17T17:52:23.936Z,0.80
2023-02-17T17:54:50.553Z,0.93
2023-02-17T17:57:17.040Z,1.10
2023-02-17T17:59:43.752Z,0.90
2023-02-17T18:02:10.351Z,0.90
2023-02-17T18:04:36.966Z,1.02
2023-02-17T18:07:03.660Z,0.60
2023-02-17T18:09:34.696Z,0.75
2023-02-17T18:12:05.698Z,1.02
2023-02-17T18:14:32.658Z,1.10
2023-02-17T18:16:59.600Z,0.90
2023-02-17T18:19:26.689Z,0.60
2023-02-17T18:21:53.197Z,0.60
2023-02-17T18:24:19.902Z,1.40
2023-02-17T18:26:46.452Z,0.60
2023-02-17T18:29:13.152Z,0.75
2023-02-17T18:31:39.833Z,0.55
2023-02-17T18:34:06.480Z,0.70
2023-02-17T18:36:32.985Z,0.63
2023-02-17T18:38:59.516Z,0.60
2023-02-17T18:41:29.222Z,0.70
2023-02-17T18:43:57.451Z,1.05
2023-02-17T18:46:26.576Z,0.70
2023-02-17T18:48:55.349Z,0.80
2023-02-17T18:51:23.391Z,1.20
2023-02-17T18:53:50.890Z,0.73
2023-02-17T18:56:20.627Z,0.80
2023-02-17T18:58:48.029Z,1.17
2023-02-17T19:01:16.708Z,0.70
2023-02-17T19:03:44.333Z,0.60
2023-02-17T19:06:19.631Z,0.70
2023-02-17T19:08:48.032Z,1.05
2023-02-17T19:11:16.512Z,0.68
2023-02-17T19:13:43.008Z,0.70
2023-02-17T19:16:15.353Z,0.60
2023-02-17T19:18:43.524Z,0.80
2023-02-17T19:23:37.895Z,0.57
2023-02-17T19:26:06.280Z,0.80
2023-02-17T19:28:35.258Z,0.47
2023-02-17T19:31:02.541Z,0.75
2023-02-17T19:33:29.062Z,0.57
2023-02-17T19:35:55.585Z,0.52
2023-02-17T19:38:22.169Z,0.60
2023-02-17T19:40:48.721Z,0.60
2023-02-17T19:43:15.316Z,0.82
2023-02-17T19:45:41.947Z,0.70
2023-02-17T19:48:08.465Z,0.60
2023-02-17T19:50:37.568Z,0.75
2023-02-17T19:53:04.129Z,0.38
2023-02-17T19:55:30.618Z,0.95
2023-02-17T19:57:57.135Z,0.75
2023-02-17T20:00:25.046Z,0.47
2023-02-17T20:02:51.922Z,0.52
2023-02-17T20:05:18.765Z,0.60
2023-02-17T20:07:45.240Z,0.75
2023-02-17T20:10:12.688Z,0.35
2023-02-17T20:12:39.349Z,0.22
2023-02-17T20:15:06.290Z,0.50
2023-02-17T20:17:32.974Z,0.43
2023-02-17T20:19:59.637Z,1.08
2023-02-17T20:22:26.471Z,0.40
2023-02-17T20:24:53.045Z,0.70
2023-02-17T20:27:19.586Z,0.60
2023-02-17T20:29:46.175Z,0.75
2023-02-17T20:32:12.817Z,0.75
2023-02-17T20:34:40.409Z,0.47
2023-02-17T20:37:08.069Z,0.60
2023-02-17T20:39:35.526Z,0.85
2023-02-17T20:42:03.258Z,0.57
2023-02-17T20:44:29.866Z,0.63
2023-02-17T20:46:57.242Z,1.13
2023-02-17T20:49:24.430Z,0.52
2023-02-17T20:51:51.199Z,0.43
2023-02-17T20:54:18.137Z,1.02
2023-02-17T20:56:46.670Z,0.80
2023-02-17T20:59:14.277Z,0.60
2023-02-17T21:01:42.039Z,0.82
2023-02-17T21:04:09.197Z,0.90
2023-02-17T21:06:38.499Z,0.60
2023-02-17T21:09:09.366Z,2.25
2023-02-17T21:11:35.985Z,1.05
2023-02-17T21:14:02.495Z,1.60
2023-02-17T21:16:30.920Z,0.85
2023-02-17T21:18:58.893Z,0.77
2023-02-17T21:21:26.136Z,1.00
2023-02-17T21:23:53.101Z,0.88
2023-02-17T21:26:20.057Z,0.85
2023-02-17T21:28:47.302Z,1.20
2023-02-17T21:31:15.189Z,1.53
2023-02-17T21:33:43.010Z,2.70
2023-02-17T21:36:17.733Z,1.67
2023-02-17T21:38:44.434Z,1.40
2023-02-17T21:41:16.495Z,1.33
2023-02-17T21:43:43.366Z,1.20
2023-02-17T21:46:11.848Z,1.30
2023-02-17T21:48:38.439Z,1.00
2023-02-17T21:51:09.909Z,1.40
2023-02-17T21:53:36.698Z,0.90
2023-02-17T21:56:04.924Z,0.95
2023-02-17T21:58:33.349Z,1.42
2023-02-17T22:01:00.356Z,1.20
2023-02-17T22:03:27.587Z,1.55
2023-02-17T22:05:54.080Z,1.20
2023-02-17T22:08:20.866Z,1.15
2023-02-17T22:10:47.603Z,1.30
2023-02-17T22:13:14.166Z,1.35
2023-02-17T22:15:40.688Z,1.23
2023-02-17T22:18:07.388Z,1.33
2023-02-17T22:20:34.337Z,0.85
2023-02-17T22:23:00.898Z,1.33
2023-02-17T22:25:27.358Z,1.17
2023-02-17T22:27:53.932Z,1.05
2023-02-17T22:30:20.753Z,1.20
2023-02-17T22:32:47.310Z,1.25
2023-02-17T22:35:14.163Z,1.00
2023-02-17T22:37:40.726Z,1.00
2023-02-17T22:40:08.267Z,1.17
2023-02-17T22:42:34.830Z,0.90
2023-02-17T22:45:01.405Z,1.38
2023-02-17T22:47:28.044Z,0.80
2023-02-17T22:49:54.564Z,2.03
2023-02-17T22:52:21.205Z,1.05
2023-02-17T22:54:47.797Z,0.90
2023-02-17T22:57:14.280Z,1.10
2023-02-17T22:59:41.015Z,0.90
2023-02-17T23:02:07.573Z,1.60
2023-02-17T23:04:34.330Z,1.02
2023-02-17T23:07:00.899Z,1.00
2023-02-17T23:09:27.456Z,0.90
2023-02-17T23:11:54.527Z,1.27
2023-02-17T23:14:21.159Z,0.90
2023-02-17T23:16:47.801Z,1.40
2023-02-17T23:19:16.461Z,1.33
2023-02-17T23:21:47.927Z,1.20
2023-02-17T23:24:16.226Z,1.20
2023-02-17T23:26:42.792Z,1.05
2023-02-17T23:29:09.894Z,1.30
2023-02-17T23:31:37.816Z,0.90
2023-02-17T23:34:04.787Z,0.98
2023-02-17T23:36:31.691Z,0.70
2023-02-17T23:38:59.550Z,1.40
2023-02-17T23:41:26.976Z,1.05
2023-02-17T23:43:53.972Z,1.13
2023-02-17T23:46:20.845Z,0.93
2023-02-17T23:48:47.687Z,1.10
2023-02-17T23:51:18.803Z,1.02
2023-02-17T23:53:45.692Z,1.75
2023-02-17T23:56:22.952Z,1.20
2023-02-17T23:58:49.579Z,1.15
